Terminal Aerodrome Forecast
Issued by NWS

Home | Current Version | Previous Version | Text Only | Print | Product List | Glossary Off
Versions: 1 2 3 4 5 6 7 8 9 10 11 12 13 14 15 16

000
FTUS43 KFGF 191700
TAFBJI
TAF
KBJI 191722Z 1918/2018 29010G18KT P6SM SKC
     FM200000 31007KT P6SM SCT050
     FM200700 VRB04KT P6SM FEW250=

USA.gov is the U.S. government's official web portal to all federal, state and local government web resources and services.